createdAt,value
2022-10-10T00:00:50.021Z,10.11
2022-10-10T00:03:18.498Z,10.13
2022-10-10T00:05:47.818Z,10.09
2022-10-10T00:08:15.516Z,10.06
2022-10-10T00:10:43.267Z,10.06
2022-10-10T00:13:11.013Z,10.08
2022-10-10T00:15:38.831Z,10.07
2022-10-10T00:18:06.644Z,10.07
2022-10-10T00:20:34.319Z,10.04
2022-10-10T00:23:03.367Z,10.04
2022-10-10T00:25:31.207Z,10.06
2022-10-10T00:28:02.031Z,10.06
2022-10-10T00:30:29.819Z,10.07
2022-10-10T00:32:59.450Z,10.08
2022-10-10T00:35:27.859Z,10.08
2022-10-10T00:37:55.650Z,10.09
2022-10-10T00:40:25.787Z,10.11
2022-10-10T00:42:53.887Z,10.11
2022-10-10T00:45:29.896Z,10.09
2022-10-10T00:48:01.771Z,10.12
2022-10-10T00:50:35.409Z,10.14
2022-10-10T00:53:06.099Z,10.11
2022-10-10T00:55:36.721Z,10.12
2022-10-10T00:58:05.689Z,10.15
2022-10-10T01:00:33.524Z,10.14
2022-10-10T01:03:01.299Z,10.15
2022-10-10T01:05:29.195Z,10.18
2022-10-10T01:07:57.268Z,10.21
2022-10-10T01:10:25.327Z,10.24
2022-10-10T01:13:08.591Z,10.24
2022-10-10T01:15:47.414Z,10.26
2022-10-10T01:18:25.340Z,10.27
2022-10-10T01:21:14.463Z,10.28
2022-10-10T01:24:11.728Z,10.28
2022-10-10T01:26:59.011Z,10.28
2022-10-10T01:29:32.425Z,10.28
2022-10-10T01:32:06.382Z,10.30
2022-10-10T01:34:42.461Z,10.34
2022-10-10T01:37:18.066Z,10.34
2022-10-10T01:39:56.226Z,10.35
2022-10-10T01:42:29.544Z,10.35
2022-10-10T01:44:59.219Z,10.34
2022-10-10T01:47:27.012Z,10.34
2022-10-10T01:49:58.934Z,10.34
2022-10-10T01:52:43.674Z,10.36
2022-10-10T01:55:29.563Z,10.37
2022-10-10T01:58:10.828Z,10.39
2022-10-10T02:00:49.867Z,10.39
2022-10-10T02:03:21.539Z,10.38
2022-10-10T02:05:56.158Z,10.38
2022-10-10T02:08:30.371Z,10.37
2022-10-10T02:11:01.567Z,10.35
2022-10-10T02:13:36.275Z,10.35
2022-10-10T02:16:10.124Z,10.37
2022-10-10T02:18:38.426Z,10.38
2022-10-10T02:21:09.529Z,10.37
2022-10-10T02:23:38.017Z,10.36
2022-10-10T02:26:05.793Z,10.39
2022-10-10T02:28:40.961Z,10.41
2022-10-10T02:31:13.765Z,10.39
2022-10-10T02:33:49.441Z,10.42
2022-10-10T02:36:19.857Z,10.41
2022-10-10T02:38:48.907Z,10.42
2022-10-10T02:41:19.447Z,10.43
2022-10-10T02:43:48.852Z,10.47
2022-10-10T02:46:18.363Z,10.47
2022-10-10T02:48:46.113Z,10.48
2022-10-10T02:51:16.837Z,10.49
2022-10-10T02:53:44.602Z,10.50
2022-10-10T02:56:12.511Z,10.51
2022-10-10T02:58:40.234Z,10.52
2022-10-10T03:01:07.897Z,10.51
2022-10-10T03:03:37.106Z,10.52
2022-10-10T03:06:05.157Z,10.55
2022-10-10T03:08:33.238Z,10.54
2022-10-10T03:11:02.469Z,10.52
2022-10-10T03:13:30.575Z,10.48
2022-10-10T03:15:58.372Z,10.45
2022-10-10T03:18:26.122Z,10.45
2022-10-10T03:20:56.937Z,10.48
2022-10-10T03:23:25.751Z,10.50
2022-10-10T03:25:53.489Z,10.53
2022-10-10T03:28:21.578Z,10.54
2022-10-10T03:30:49.831Z,10.48
2022-10-10T03:33:17.498Z,10.49
2022-10-10T03:35:45.356Z,10.50
2022-10-10T03:38:14.856Z,10.50
2022-10-10T03:40:44.301Z,10.48
2022-10-10T03:43:14.012Z,10.46
2022-10-10T03:45:44.232Z,10.44
2022-10-10T03:48:12.809Z,10.44
2022-10-10T03:50:40.521Z,10.44
2022-10-10T03:53:08.468Z,10.44
2022-10-10T03:55:40.816Z,10.41
2022-10-10T03:58:08.603Z,10.36
2022-10-10T04:00:36.748Z,10.36
2022-10-10T04:03:06.324Z,10.36
2022-10-10T04:05:35.304Z,10.36
2022-10-10T04:08:03.233Z,10.35
2022-10-10T04:10:34.188Z,10.36
2022-10-10T04:13:03.327Z,10.37
2022-10-10T04:15:31.755Z,10.38
2022-10-10T04:17:59.480Z,10.39
2022-10-10T04:20:28.141Z,10.39
2022-10-10T04:22:55.903Z,10.40
2022-10-10T04:25:23.855Z,10.43
2022-10-10T04:27:51.619Z,10.47
2022-10-10T04:30:21.028Z,10.50
2022-10-10T04:32:49.079Z,10.54
2022-10-10T04:35:17.002Z,10.54
2022-10-10T04:37:45.692Z,10.55
2022-10-10T04:40:13.458Z,10.59
2022-10-10T04:42:41.200Z,10.59
2022-10-10T04:45:09.930Z,10.62
2022-10-10T04:47:39.002Z,10.62
2022-10-10T04:50:07.887Z,10.64
2022-10-10T04:52:35.700Z,10.64
2022-10-10T04:55:03.456Z,10.66
2022-10-10T04:57:34.075Z,10.66
2022-10-10T05:00:01.947Z,10.66
2022-10-10T05:02:29.745Z,10.69
2022-10-10T05:04:58.976Z,10.69
2022-10-10T05:07:30.950Z,10.69
2022-10-10T05:09:58.786Z,10.67
2022-10-10T05:12:26.824Z,10.70
2022-10-10T05:14:54.628Z,10.70
2022-10-10T05:17:22.408Z,10.69
2022-10-10T05:19:51.563Z,10.70
2022-10-10T05:22:20.661Z,10.70
2022-10-10T05:24:48.367Z,10.72
2022-10-10T05:27:16.118Z,10.70
2022-10-10T05:29:43.751Z,10.73
2022-10-10T05:32:11.646Z,10.71
2022-10-10T05:34:39.424Z,10.69
2022-10-10T05:37:07.207Z,10.69
2022-10-10T05:39:36.455Z,10.68
2022-10-10T05:42:04.918Z,10.69
2022-10-10T05:44:34.969Z,10.67
2022-10-10T05:47:04.361Z,10.66
2022-10-10T05:49:32.307Z,10.66
2022-10-10T05:52:00.207Z,10.67
2022-10-10T05:54:28.298Z,10.69
2022-10-10T05:56:57.431Z,10.72
2022-10-10T05:59:25.349Z,10.72
2022-10-10T06:01:53.694Z,10.72
2022-10-10T06:04:21.515Z,10.73
2022-10-10T06:06:49.316Z,10.76
2022-10-10T06:09:17.388Z,10.77
2022-10-10T06:11:45.244Z,10.79
2022-10-10T06:14:14.411Z,10.77
2022-10-10T06:16:45.185Z,10.80
2022-10-10T06:19:15.045Z,10.82
2022-10-10T06:21:43.038Z,10.82
2022-10-10T06:24:11.724Z,10.86
2022-10-10T06:26:39.610Z,10.89
2022-10-10T06:29:07.484Z,10.91
2022-10-10T06:31:39.367Z,10.96
2022-10-10T06:34:07.374Z,10.99
2022-10-10T06:36:35.201Z,11.03
2022-10-10T06:39:02.962Z,11.04
2022-10-10T06:41:35.194Z,11.07
2022-10-10T06:44:02.885Z,11.13
2022-10-10T06:46:30.796Z,11.17
2022-10-10T06:49:00.177Z,11.23
2022-10-10T06:51:27.955Z,11.28
2022-10-10T06:53:57.872Z,11.32
2022-10-10T06:56:28.777Z,11.36
2022-10-10T06:59:02.299Z,11.45
2022-10-10T07:01:31.725Z,11.50
2022-10-10T07:04:00.799Z,11.55
2022-10-10T07:06:32.518Z,11.59
2022-10-10T07:09:02.398Z,11.63
2022-10-10T07:11:30.253Z,11.67
2022-10-10T07:13:58.080Z,11.70
2022-10-10T07:16:25.975Z,11.73
2022-10-10T07:18:53.702Z,11.76
2022-10-10T07:21:22.897Z,11.81
2022-10-10T07:23:50.674Z,11.87
2022-10-10T07:26:22.093Z,11.90
2022-10-10T07:28:49.994Z,11.95
2022-10-10T07:31:17.771Z,11.99
2022-10-10T07:33:50.509Z,12.01
2022-10-10T07:36:19.576Z,12.05
2022-10-10T07:38:52.917Z,12.10
2022-10-10T07:41:22.971Z,12.13
2022-10-10T07:43:55.180Z,12.16
2022-10-10T07:46:22.966Z,12.20
2022-10-10T07:48:50.665Z,12.22
2022-10-10T07:51:19.092Z,12.24
2022-10-10T07:53:47.769Z,12.26
2022-10-10T07:56:16.905Z,12.29
2022-10-10T07:58:44.615Z,12.34
2022-10-10T08:01:14.154Z,12.40
2022-10-10T08:03:42.420Z,12.47
2022-10-10T08:06:12.130Z,12.55
2022-10-10T08:08:50.047Z,12.66
2022-10-10T08:11:20.550Z,12.75
2022-10-10T08:13:48.480Z,12.85
2022-10-10T08:16:16.920Z,12.97
2022-10-10T08:18:44.754Z,13.07
2022-10-10T08:21:14.549Z,13.16
2022-10-10T08:23:42.813Z,13.26
2022-10-10T08:26:12.649Z,13.37
2022-10-10T08:28:44.709Z,13.46
2022-10-10T08:31:14.996Z,13.50
2022-10-10T08:33:45.838Z,13.57
2022-10-10T08:36:20.265Z,13.61
2022-10-10T08:38:48.525Z,13.64
2022-10-10T08:41:33.012Z,13.69
2022-10-10T08:44:06.457Z,13.73
2022-10-10T08:46:42.276Z,13.78
2022-10-10T08:49:20.431Z,13.81
2022-10-10T08:51:55.644Z,13.85
2022-10-10T08:54:27.014Z,13.92
2022-10-10T08:56:59.668Z,14.01
2022-10-10T08:59:35.055Z,14.12
2022-10-10T09:02:26.334Z,14.22
2022-10-10T09:05:01.530Z,14.35
2022-10-10T09:07:45.080Z,14.52
2022-10-10T09:10:24.166Z,14.67
2022-10-10T09:13:02.935Z,14.83
2022-10-10T09:15:36.251Z,15.00
2022-10-10T09:18:14.666Z,15.13
2022-10-10T09:20:49.849Z,15.21
2022-10-10T09:23:23.290Z,15.24
2022-10-10T09:25:57.184Z,15.21
2022-10-10T09:28:36.662Z,15.24
2022-10-10T09:31:09.614Z,15.21
2022-10-10T09:33:41.410Z,15.23
2022-10-10T09:36:17.598Z,15.26
2022-10-10T09:38:50.322Z,15.32
2022-10-10T09:41:24.840Z,15.38
2022-10-10T09:44:00.004Z,15.47
2022-10-10T09:46:33.248Z,15.53
2022-10-10T09:49:01.648Z,15.60
2022-10-10T09:51:33.910Z,15.69
2022-10-10T09:54:03.536Z,15.86
2022-10-10T09:56:41.035Z,16.03
2022-10-10T09:59:49.430Z,16.21
2022-10-10T10:02:28.261Z,16.39
2022-10-10T10:05:16.944Z,16.46
2022-10-10T10:07:53.729Z,16.56
2022-10-10T10:10:44.633Z,16.65
2022-10-10T10:13:23.119Z,16.76
2022-10-10T10:16:16.159Z,16.87
2022-10-10T10:19:04.270Z,16.96
2022-10-10T10:22:01.766Z,17.05
2022-10-10T10:25:09.858Z,17.12
2022-10-10T10:27:39.627Z,17.17
2022-10-10T10:30:25.351Z,17.20
2022-10-10T10:33:11.044Z,17.15
2022-10-10T10:35:46.748Z,17.10
2022-10-10T10:38:37.516Z,17.05
2022-10-10T10:41:41.895Z,17.07
2022-10-10T10:44:38.813Z,17.20
2022-10-10T10:47:27.767Z,17.38
2022-10-10T10:50:20.225Z,17.55
2022-10-10T10:53:13.429Z,17.65
2022-10-10T10:56:21.967Z,17.63
2022-10-10T11:00:16.572Z,17.67
2022-10-10T11:02:01.944Z,17.73
2022-10-10T11:05:18.901Z,17.73
2022-10-10T11:08:20.019Z,17.70
2022-10-10T11:11:29.783Z,17.71
2022-10-10T11:14:20.241Z,17.74
2022-10-10T11:17:43.180Z,17.75
2022-10-10T11:20:03.449Z,17.85
2022-10-10T11:22:55.969Z,17.95
2022-10-10T11:25:27.834Z,18.09
2022-10-10T11:28:01.183Z,18.22
2022-10-10T11:30:32.626Z,18.31
2022-10-10T11:33:06.764Z,18.39
2022-10-10T11:35:37.898Z,18.41
2022-10-10T11:38:14.161Z,18.41
2022-10-10T11:40:49.464Z,18.42
2022-10-10T11:43:26.516Z,18.43
2022-10-10T11:46:03.260Z,18.46
2022-10-10T11:48:43.603Z,18.47
2022-10-10T11:51:25.923Z,18.45
2022-10-10T11:54:00.583Z,18.44
2022-10-10T11:56:34.335Z,18.45
2022-10-10T11:59:09.219Z,18.46
2022-10-10T12:01:42.175Z,18.49
2022-10-10T12:04:10.046Z,18.54
2022-10-10T12:06:41.896Z,18.57
2022-10-10T12:09:17.483Z,18.60
2022-10-10T12:11:52.603Z,18.65
2022-10-10T12:14:24.125Z,18.67
2022-10-10T12:16:53.026Z,18.68
2022-10-10T12:19:22.946Z,18.69
2022-10-10T12:21:57.272Z,18.66
2022-10-10T12:24:28.996Z,18.66
2022-10-10T12:27:28.963Z,18.64
2022-10-10T12:30:18.905Z,18.63
2022-10-10T12:32:47.340Z,18.59
2022-10-10T12:35:40.376Z,18.59
2022-10-10T12:38:17.816Z,18.56
2022-10-10T12:41:20.222Z,18.58
2022-10-10T12:44:12.374Z,18.65
2022-10-10T12:46:40.527Z,18.78
2022-10-10T12:49:21.334Z,18.85
2022-10-10T12:52:21.650Z,18.89
2022-10-10T12:54:51.467Z,18.90
2022-10-10T12:57:28.474Z,18.94
2022-10-10T13:00:01.187Z,18.98
2022-10-10T13:02:29.966Z,18.99
2022-10-10T13:05:02.307Z,19.02
2022-10-10T13:07:30.730Z,19.01
2022-10-10T13:10:08.834Z,18.94
2022-10-10T13:12:38.031Z,18.97
2022-10-10T13:15:20.084Z,19.02
2022-10-10T13:17:47.847Z,19.02
2022-10-10T13:20:29.856Z,19.11
2022-10-10T13:22:58.663Z,19.16
2022-10-10T13:25:27.439Z,19.19
2022-10-10T13:27:56.686Z,19.25
2022-10-10T13:30:26.491Z,19.31
2022-10-10T13:32:55.996Z,19.38
2022-10-10T13:35:26.144Z,19.36
2022-10-10T13:37:57.308Z,19.24
2022-10-10T13:40:26.561Z,19.16
2022-10-10T13:42:56.489Z,19.14
2022-10-10T13:45:32.080Z,19.05
2022-10-10T13:48:17.276Z,19.01
2022-10-10T13:50:56.793Z,18.94
2022-10-10T13:53:32.412Z,18.92
2022-10-10T13:56:05.571Z,18.91
2022-10-10T13:58:41.950Z,18.94
2022-10-10T14:01:29.498Z,18.97
2022-10-10T14:04:01.111Z,19.00
2022-10-10T14:06:29.949Z,19.01
2022-10-10T14:09:04.789Z,19.03
2022-10-10T14:11:34.806Z,19.02
2022-10-10T14:14:09.181Z,19.03
2022-10-10T14:16:36.865Z,19.01
2022-10-10T14:19:04.688Z,19.02
2022-10-10T14:21:32.577Z,19.09
2022-10-10T14:24:00.275Z,19.09
2022-10-10T14:26:28.051Z,19.10
2022-10-10T14:28:55.936Z,19.12
2022-10-10T14:31:28.711Z,19.10
2022-10-10T14:33:56.709Z,19.07
2022-10-10T14:36:24.466Z,19.04
2022-10-10T14:38:52.478Z,19.04
2022-10-10T14:41:20.184Z,19.02
2022-10-10T14:43:47.913Z,18.96
2022-10-10T14:46:19.623Z,18.80
2022-10-10T14:48:48.859Z,18.72
2022-10-10T14:51:34.911Z,18.67
2022-10-10T14:54:10.982Z,18.61
2022-10-10T14:57:09.062Z,18.53
2022-10-10T14:59:47.377Z,18.48
2022-10-10T15:02:16.642Z,18.41
2022-10-10T15:04:45.970Z,18.39
2022-10-10T15:07:15.178Z,18.36
2022-10-10T15:10:02.484Z,18.32
2022-10-10T15:12:30.741Z,18.31
2022-10-10T15:14:58.691Z,18.27
2022-10-10T15:17:27.238Z,18.25
2022-10-10T15:19:56.439Z,18.21
2022-10-10T15:22:24.282Z,18.17
2022-10-10T15:24:52.017Z,18.09
2022-10-10T15:27:20.026Z,18.11
2022-10-10T15:29:49.424Z,18.14
2022-10-10T15:32:17.344Z,18.19
2022-10-10T15:34:45.157Z,18.15
2022-10-10T15:37:15.419Z,18.04
2022-10-10T15:39:44.715Z,17.96
2022-10-10T15:42:16.290Z,17.95
2022-10-10T15:44:48.021Z,17.86
2022-10-10T15:47:17.697Z,17.79
2022-10-10T15:49:45.615Z,17.80
2022-10-10T15:52:18.686Z,17.68
2022-10-10T15:54:49.317Z,17.60
2022-10-10T15:57:20.765Z,17.57
2022-10-10T15:59:48.684Z,17.46
2022-10-10T16:02:17.151Z,17.32
2022-10-10T16:04:46.105Z,17.37
2022-10-10T16:07:28.628Z,17.36
2022-10-10T16:09:57.864Z,17.23
2022-10-10T16:12:25.796Z,17.00
2022-10-10T16:14:53.604Z,17.00
2022-10-10T16:17:30.495Z,16.90
2022-10-10T16:19:58.250Z,16.90
2022-10-10T16:22:27.343Z,16.91
2022-10-10T16:27:43.922Z,16.84
2022-10-10T16:30:12.696Z,16.87
2022-10-10T16:32:42.641Z,16.77
2022-10-10T16:35:11.372Z,16.76
2022-10-10T16:37:40.510Z,16.72
2022-10-10T16:40:09.243Z,16.71
2022-10-10T16:42:37.102Z,16.67
2022-10-10T16:45:05.532Z,16.61
2022-10-10T16:47:33.320Z,16.51
2022-10-10T16:50:03.626Z,16.43
2022-10-10T16:52:33.170Z,16.37
2022-10-10T16:55:02.445Z,16.27
2022-10-10T16:57:30.609Z,16.11
2022-10-10T16:59:58.631Z,15.97
2022-10-10T17:02:26.383Z,15.95
2022-10-10T17:04:54.168Z,15.71
2022-10-10T17:07:21.863Z,15.58
2022-10-10T17:09:49.676Z,15.51
2022-10-10T17:12:19.415Z,15.36
2022-10-10T17:14:47.213Z,15.27
2022-10-10T17:17:14.982Z,15.23
2022-10-10T17:19:42.845Z,15.11
2022-10-10T17:22:10.694Z,15.10
2022-10-10T17:24:38.484Z,15.14
2022-10-10T17:27:06.402Z,15.00
2022-10-10T17:29:35.551Z,15.08
2022-10-10T17:32:06.474Z,14.98
2022-10-10T17:34:35.337Z,14.86
2022-10-10T17:37:03.879Z,14.76
2022-10-10T17:39:32.832Z,14.78
2022-10-10T17:42:01.044Z,14.76
2022-10-10T17:44:29.105Z,14.87
2022-10-10T17:46:58.359Z,14.84
2022-10-10T17:49:26.467Z,14.87
2022-10-10T17:51:54.472Z,14.78
2022-10-10T17:54:23.462Z,14.80
2022-10-10T17:56:56.029Z,14.82
2022-10-10T17:59:23.936Z,14.83
2022-10-10T18:02:03.435Z,14.86
2022-10-10T18:04:36.106Z,14.86
2022-10-10T18:07:04.085Z,14.74
2022-10-10T18:09:31.994Z,14.79
2022-10-10T18:11:59.943Z,14.81
2022-10-10T18:14:27.810Z,14.70
2022-10-10T18:16:55.906Z,14.70
2022-10-10T18:19:23.731Z,14.69
2022-10-10T18:21:52.998Z,14.70
2022-10-10T18:24:20.973Z,14.62
2022-10-10T18:26:52.579Z,14.61
2022-10-10T18:29:22.485Z,14.66
2022-10-10T18:31:52.533Z,14.70
2022-10-10T18:34:20.451Z,14.67
2022-10-10T18:36:50.230Z,14.64
2022-10-10T18:39:19.953Z,14.62
2022-10-10T18:41:47.969Z,14.49
2022-10-10T18:44:17.722Z,14.40
2022-10-10T18:46:46.208Z,14.29
2022-10-10T18:49:14.848Z,14.25
2022-10-10T18:51:43.689Z,14.15
2022-10-10T18:54:22.779Z,14.05
2022-10-10T18:56:50.607Z,14.00
2022-10-10T18:59:22.144Z,14.00
2022-10-10T19:01:52.305Z,13.98
2022-10-10T19:04:21.716Z,13.98
2022-10-10T19:06:54.683Z,13.96
2022-10-10T19:09:27.200Z,13.92
2022-10-10T19:11:55.286Z,13.86
2022-10-10T19:14:23.230Z,13.85
2022-10-10T19:16:51.215Z,13.79
2022-10-10T19:19:20.346Z,13.73
2022-10-10T19:21:54.586Z,13.66
2022-10-10T19:24:22.589Z,13.62
2022-10-10T19:26:54.798Z,13.57
2022-10-10T19:29:23.327Z,13.53
2022-10-10T19:31:51.612Z,13.46
2022-10-10T19:34:19.515Z,13.44
2022-10-10T19:36:47.303Z,13.38
2022-10-10T19:39:15.251Z,13.30
2022-10-10T19:41:43.106Z,13.24
2022-10-10T19:44:12.336Z,13.22
2022-10-10T19:46:40.389Z,13.19
2022-10-10T19:49:08.391Z,13.14
2022-10-10T19:51:36.164Z,13.10
2022-10-10T19:54:04.060Z,13.05
2022-10-10T19:56:31.994Z,13.02
2022-10-10T19:59:04.249Z,12.97
2022-10-10T20:01:34.040Z,12.92
2022-10-10T20:04:04.177Z,12.89
2022-10-10T20:06:33.365Z,12.83
2022-10-10T20:09:01.366Z,12.77
2022-10-10T20:11:29.355Z,12.72
2022-10-10T20:13:58.443Z,12.67
2022-10-10T20:16:27.698Z,12.61
2022-10-10T20:18:59.105Z,12.56
2022-10-10T20:21:31.754Z,12.53
2022-10-10T20:24:00.288Z,12.50
2022-10-10T20:26:28.630Z,12.48
2022-10-10T20:28:58.082Z,12.44
2022-10-10T20:31:27.760Z,12.43
2022-10-10T20:34:04.121Z,12.36
2022-10-10T20:36:41.073Z,12.25
2022-10-10T20:39:12.680Z,12.20
2022-10-10T20:41:41.780Z,12.19
2022-10-10T20:44:12.630Z,12.17
2022-10-10T20:46:42.988Z,12.14
2022-10-10T20:49:14.057Z,12.09
2022-10-10T20:51:48.333Z,12.05
2022-10-10T20:54:17.727Z,12.02
2022-10-10T20:56:45.689Z,11.99
2022-10-10T20:59:13.786Z,11.96
2022-10-10T21:01:45.137Z,11.91
2022-10-10T21:04:13.986Z,11.87
2022-10-10T21:06:44.026Z,11.86
2022-10-10T21:09:14.026Z,11.78
2022-10-10T21:11:42.506Z,11.73
2022-10-10T21:14:11.863Z,11.71
2022-10-10T21:16:41.791Z,11.67
2022-10-10T21:19:12.248Z,11.64
2022-10-10T21:21:40.563Z,11.60
2022-10-10T21:24:12.202Z,11.56
2022-10-10T21:26:40.869Z,11.53
2022-10-10T21:29:08.833Z,11.52
2022-10-10T21:31:38.459Z,11.47
2022-10-10T21:34:08.406Z,11.45
2022-10-10T21:36:37.407Z,11.40
2022-10-10T21:39:06.905Z,11.38
2022-10-10T21:41:37.736Z,11.37
2022-10-10T21:44:05.979Z,11.32
2022-10-10T21:46:36.968Z,11.28
2022-10-10T21:49:06.943Z,11.25
2022-10-10T21:51:37.334Z,11.22
2022-10-10T21:54:05.310Z,11.20
2022-10-10T21:56:33.753Z,11.16
2022-10-10T21:59:02.980Z,11.14
2022-10-10T22:01:32.949Z,11.11
2022-10-10T22:04:01.668Z,11.07
2022-10-10T22:06:29.616Z,11.06
2022-10-10T22:09:00.344Z,11.03
2022-10-10T22:11:29.880Z,11.01
2022-10-10T22:13:57.709Z,10.93
2022-10-10T22:16:26.900Z,10.91
2022-10-10T22:18:55.672Z,10.89
2022-10-10T22:21:29.201Z,10.86
2022-10-10T22:23:58.976Z,10.85
2022-10-10T22:26:26.894Z,10.84
2022-10-10T22:28:54.774Z,10.81
2022-10-10T22:31:22.614Z,10.77
2022-10-10T22:33:51.924Z,10.72
2022-10-10T22:36:19.872Z,10.72
2022-10-10T22:38:47.870Z,10.70
2022-10-10T22:41:15.724Z,10.67
2022-10-10T22:43:43.544Z,10.65
2022-10-10T22:46:11.454Z,10.63
2022-10-10T22:48:39.561Z,10.60
2022-10-10T22:51:12.290Z,10.58
2022-10-10T22:53:40.722Z,10.56
2022-10-10T22:56:09.366Z,10.54
2022-10-10T22:58:37.270Z,10.51
2022-10-10T23:01:06.578Z,10.50
2022-10-10T23:03:34.567Z,10.48
2022-10-10T23:06:03.155Z,10.46
2022-10-10T23:08:35.664Z,10.43
2022-10-10T23:11:03.570Z,10.40
2022-10-10T23:13:32.766Z,10.36
2022-10-10T23:16:00.631Z,10.34
2022-10-10T23:18:29.016Z,10.30
2022-10-10T23:20:57.118Z,10.28
2022-10-10T23:23:25.123Z,10.27
2022-10-10T23:25:54.553Z,10.25
2022-10-10T23:28:22.763Z,10.22
2022-10-10T23:30:50.544Z,10.22
2022-10-10T23:33:18.664Z,10.22
2022-10-10T23:35:56.697Z,10.18
2022-10-10T23:38:24.468Z,10.14
2022-10-10T23:40:52.457Z,10.13
2022-10-10T23:43:24.850Z,10.08
2022-10-10T23:45:52.712Z,10.05
2022-10-10T23:48:20.961Z,10.03
2022-10-10T23:50:48.732Z,10.00
2022-10-10T23:53:16.550Z,9.99
2022-10-10T23:55:44.988Z,9.97
2022-10-10T23:58:12.811Z,9.89
